sensor_id;sensor_type;location;lat;lon;timestamp;P1;durP1;ratioP1;P2;durP2;ratioP2
3293;SDS011;1659;51.470;6.770;2023-04-06T00:02:11;33.53;;;18.03;;
3293;SDS011;1659;51.470;6.770;2023-04-06T00:04:38;26.17;;;14.50;;
3293;SDS011;1659;51.470;6.770;2023-04-06T00:07:05;29.17;;;16.27;;
3293;SDS011;1659;51.470;6.770;2023-04-06T00:09:32;39.60;;;17.00;;
3293;SDS011;1659;51.470;6.770;2023-04-06T00:11:58;29.57;;;16.27;;
3293;SDS011;1659;51.470;6.770;2023-04-06T00:14:26;33.40;;;16.83;;
3293;SDS011;1659;51.470;6.770;2023-04-06T00:16:53;28.63;;;16.60;;
3293;SDS011;1659;51.470;6.770;2023-04-06T00:19:20;28.17;;;15.47;;
3293;SDS011;1659;51.470;6.770;2023-04-06T00:21:46;30.80;;;16.23;;
3293;SDS011;1659;51.470;6.770;2023-04-06T00:24:13;29.30;;;15.43;;
3293;SDS011;1659;51.470;6.770;2023-04-06T00:26:40;30.03;;;16.40;;
3293;SDS011;1659;51.470;6.770;2023-04-06T00:29:06;27.40;;;15.70;;
3293;SDS011;1659;51.470;6.770;2023-04-06T00:31:34;29.73;;;16.70;;
3293;SDS011;1659;51.470;6.770;2023-04-06T00:34:01;30.47;;;17.17;;
3293;SDS011;1659;51.470;6.770;2023-04-06T00:36:27;25.27;;;15.63;;
3293;SDS011;1659;51.470;6.770;2023-04-06T00:38:55;30.33;;;17.23;;
3293;SDS011;1659;51.470;6.770;2023-04-06T00:41:21;31.80;;;16.23;;
3293;SDS011;1659;51.470;6.770;2023-04-06T00:43:48;31.70;;;17.23;;
3293;SDS011;1659;51.470;6.770;2023-04-06T00:46:15;32.07;;;16.03;;
3293;SDS011;1659;51.470;6.770;2023-04-06T00:48:43;34.40;;;16.90;;
3293;SDS011;1659;51.470;6.770;2023-04-06T00:51:09;26.77;;;16.73;;
3293;SDS011;1659;51.470;6.770;2023-04-06T00:53:36;28.20;;;16.63;;
3293;SDS011;1659;51.470;6.770;2023-04-06T00:56:03;30.23;;;18.30;;
3293;SDS011;1659;51.470;6.770;2023-04-06T00:58:30;28.60;;;15.63;;
3293;SDS011;1659;51.470;6.770;2023-04-06T01:00:57;32.87;;;17.53;;
3293;SDS011;1659;51.470;6.770;2023-04-06T01:03:24;30.27;;;16.07;;
3293;SDS011;1659;51.470;6.770;2023-04-06T01:05:52;34.10;;;18.10;;
3293;SDS011;1659;51.470;6.770;2023-04-06T01:08:23;30.93;;;16.17;;
3293;SDS011;1659;51.470;6.770;2023-04-06T01:10:49;27.90;;;15.40;;
3293;SDS011;1659;51.470;6.770;2023-04-06T01:13:16;31.17;;;14.90;;
3293;SDS011;1659;51.470;6.770;2023-04-06T01:15:43;30.33;;;16.50;;
3293;SDS011;1659;51.470;6.770;2023-04-06T01:18:09;29.57;;;18.00;;
3293;SDS011;1659;51.470;6.770;2023-04-06T01:20:36;30.47;;;16.00;;
3293;SDS011;1659;51.470;6.770;2023-04-06T01:23:05;27.77;;;15.33;;
3293;SDS011;1659;51.470;6.770;2023-04-06T01:25:31;32.93;;;16.50;;
3293;SDS011;1659;51.470;6.770;2023-04-06T01:27:58;25.70;;;14.70;;
3293;SDS011;1659;51.470;6.770;2023-04-06T01:30:25;24.73;;;16.10;;
3293;SDS011;1659;51.470;6.770;2023-04-06T01:32:51;28.07;;;14.70;;
3293;SDS011;1659;51.470;6.770;2023-04-06T01:35:18;27.80;;;16.27;;
3293;SDS011;1659;51.470;6.770;2023-04-06T01:37:45;30.77;;;16.37;;
3293;SDS011;1659;51.470;6.770;2023-04-06T01:40:13;32.90;;;14.77;;
3293;SDS011;1659;51.470;6.770;2023-04-06T01:42:40;28.70;;;14.90;;
3293;SDS011;1659;51.470;6.770;2023-04-06T01:45:07;27.80;;;14.97;;
3293;SDS011;1659;51.470;6.770;2023-04-06T01:47:34;22.30;;;14.33;;
3293;SDS011;1659;51.470;6.770;2023-04-06T01:50:01;24.90;;;15.33;;
3293;SDS011;1659;51.470;6.770;2023-04-06T01:52:31;23.60;;;13.90;;
3293;SDS011;1659;51.470;6.770;2023-04-06T01:54:57;28.17;;;14.33;;
3293;SDS011;1659;51.470;6.770;2023-04-06T01:57:25;22.33;;;14.70;;
3293;SDS011;1659;51.470;6.770;2023-04-06T01:59:52;30.40;;;16.50;;
3293;SDS011;1659;51.470;6.770;2023-04-06T02:02:19;27.93;;;15.20;;
3293;SDS011;1659;51.470;6.770;2023-04-06T02:04:45;26.13;;;14.20;;
3293;SDS011;1659;51.470;6.770;2023-04-06T02:07:12;30.53;;;15.20;;
3293;SDS011;1659;51.470;6.770;2023-04-06T02:09:38;23.63;;;13.93;;
3293;SDS011;1659;51.470;6.770;2023-04-06T02:12:05;29.10;;;13.80;;
3293;SDS011;1659;51.470;6.770;2023-04-06T02:14:33;24.57;;;13.70;;
3293;SDS011;1659;51.470;6.770;2023-04-06T02:17:00;22.03;;;13.77;;
3293;SDS011;1659;51.470;6.770;2023-04-06T02:19:26;30.23;;;15.40;;
3293;SDS011;1659;51.470;6.770;2023-04-06T02:21:53;23.50;;;13.67;;
3293;SDS011;1659;51.470;6.770;2023-04-06T02:24:20;24.37;;;14.43;;
3293;SDS011;1659;51.470;6.770;2023-04-06T02:26:47;26.47;;;14.40;;
3293;SDS011;1659;51.470;6.770;2023-04-06T02:29:13;28.80;;;13.53;;
3293;SDS011;1659;51.470;6.770;2023-04-06T02:31:41;30.40;;;15.10;;
3293;SDS011;1659;51.470;6.770;2023-04-06T02:34:08;27.33;;;14.93;;
3293;SDS011;1659;51.470;6.770;2023-04-06T02:36:37;29.07;;;13.80;;
3293;SDS011;1659;51.470;6.770;2023-04-06T02:39:03;24.97;;;14.27;;
3293;SDS011;1659;51.470;6.770;2023-04-06T02:41:30;28.60;;;15.03;;
3293;SDS011;1659;51.470;6.770;2023-04-06T02:43:56;22.97;;;13.70;;
3293;SDS011;1659;51.470;6.770;2023-04-06T02:46:23;28.83;;;14.63;;
3293;SDS011;1659;51.470;6.770;2023-04-06T02:48:51;32.03;;;16.60;;
3293;SDS011;1659;51.470;6.770;2023-04-06T02:51:18;27.60;;;15.30;;
3293;SDS011;1659;51.470;6.770;2023-04-06T02:53:45;22.97;;;13.83;;
3293;SDS011;1659;51.470;6.770;2023-04-06T02:56:12;22.30;;;13.73;;
3293;SDS011;1659;51.470;6.770;2023-04-06T02:58:38;25.00;;;15.90;;
3293;SDS011;1659;51.470;6.770;2023-04-06T03:01:05;23.17;;;14.17;;
3293;SDS011;1659;51.470;6.770;2023-04-06T03:03:32;29.00;;;15.80;;
3293;SDS011;1659;51.470;6.770;2023-04-06T03:06:00;20.50;;;14.10;;
3293;SDS011;1659;51.470;6.770;2023-04-06T03:08:26;27.53;;;14.10;;
3293;SDS011;1659;51.470;6.770;2023-04-06T03:10:53;25.43;;;15.10;;
3293;SDS011;1659;51.470;6.770;2023-04-06T03:13:20;28.47;;;15.60;;
3293;SDS011;1659;51.470;6.770;2023-04-06T03:15:46;24.50;;;15.50;;
3293;SDS011;1659;51.470;6.770;2023-04-06T03:18:13;24.20;;;15.40;;
3293;SDS011;1659;51.470;6.770;2023-04-06T03:20:40;27.47;;;14.30;;
3293;SDS011;1659;51.470;6.770;2023-04-06T03:23:08;34.43;;;16.87;;
3293;SDS011;1659;51.470;6.770;2023-04-06T03:25:35;22.87;;;14.33;;
3293;SDS011;1659;51.470;6.770;2023-04-06T03:28:01;28.70;;;15.67;;
3293;SDS011;1659;51.470;6.770;2023-04-06T03:30:28;23.10;;;15.10;;
3293;SDS011;1659;51.470;6.770;2023-04-06T03:32:55;32.73;;;14.47;;
3293;SDS011;1659;51.470;6.770;2023-04-06T03:35:21;27.07;;;15.83;;
3293;SDS011;1659;51.470;6.770;2023-04-06T03:37:48;25.10;;;16.03;;
3293;SDS011;1659;51.470;6.770;2023-04-06T03:40:16;21.40;;;14.70;;
3293;SDS011;1659;51.470;6.770;2023-04-06T03:42:43;26.17;;;15.13;;
3293;SDS011;1659;51.470;6.770;2023-04-06T03:45:10;35.40;;;15.83;;
3293;SDS011;1659;51.470;6.770;2023-04-06T03:47:37;26.00;;;14.10;;
3293;SDS011;1659;51.470;6.770;2023-04-06T03:50:05;25.83;;;15.13;;
3293;SDS011;1659;51.470;6.770;2023-04-06T03:52:32;22.80;;;14.07;;
3293;SDS011;1659;51.470;6.770;2023-04-06T03:54:58;24.70;;;14.67;;
3293;SDS011;1659;51.470;6.770;2023-04-06T03:57:26;24.47;;;14.53;;
3293;SDS011;1659;51.470;6.770;2023-04-06T03:59:53;23.03;;;13.57;;
3293;SDS011;1659;51.470;6.770;2023-04-06T04:02:20;31.13;;;15.53;;
3293;SDS011;1659;51.470;6.770;2023-04-06T04:04:46;28.63;;;14.07;;
3293;SDS011;1659;51.470;6.770;2023-04-06T04:07:13;22.33;;;12.83;;
3293;SDS011;1659;51.470;6.770;2023-04-06T04:09:40;26.70;;;13.30;;
3293;SDS011;1659;51.470;6.770;2023-04-06T04:12:06;26.73;;;14.50;;
3293;SDS011;1659;51.470;6.770;2023-04-06T04:14:34;20.47;;;14.47;;
3293;SDS011;1659;51.470;6.770;2023-04-06T04:17:01;28.03;;;15.40;;
3293;SDS011;1659;51.470;6.770;2023-04-06T04:19:27;25.17;;;13.60;;
3293;SDS011;1659;51.470;6.770;2023-04-06T04:21:54;24.90;;;14.80;;
3293;SDS011;1659;51.470;6.770;2023-04-06T04:24:20;29.83;;;15.30;;
3293;SDS011;1659;51.470;6.770;2023-04-06T04:26:47;23.70;;;13.67;;
3293;SDS011;1659;51.470;6.770;2023-04-06T04:29:14;23.20;;;13.60;;
3293;SDS011;1659;51.470;6.770;2023-04-06T04:31:43;29.97;;;14.40;;
3293;SDS011;1659;51.470;6.770;2023-04-06T04:34:09;23.93;;;13.97;;
3293;SDS011;1659;51.470;6.770;2023-04-06T04:36:36;26.77;;;15.80;;
3293;SDS011;1659;51.470;6.770;2023-04-06T04:39:02;24.70;;;14.27;;
3293;SDS011;1659;51.470;6.770;2023-04-06T04:41:29;24.93;;;14.20;;
3293;SDS011;1659;51.470;6.770;2023-04-06T04:44:00;43.77;;;15.30;;
3293;SDS011;1659;51.470;6.770;2023-04-06T04:46:27;27.77;;;14.10;;
3293;SDS011;1659;51.470;6.770;2023-04-06T04:48:55;27.23;;;13.60;;
3293;SDS011;1659;51.470;6.770;2023-04-06T04:51:22;25.90;;;13.33;;
3293;SDS011;1659;51.470;6.770;2023-04-06T04:53:49;27.23;;;14.40;;
3293;SDS011;1659;51.470;6.770;2023-04-06T04:56:16;31.83;;;13.13;;
3293;SDS011;1659;51.470;6.770;2023-04-06T04:58:43;26.17;;;14.40;;
3293;SDS011;1659;51.470;6.770;2023-04-06T05:01:09;25.87;;;12.80;;
3293;SDS011;1659;51.470;6.770;2023-04-06T05:03:36;32.17;;;13.80;;
3293;SDS011;1659;51.470;6.770;2023-04-06T05:06:05;26.73;;;13.33;;
3293;SDS011;1659;51.470;6.770;2023-04-06T05:08:32;23.93;;;14.00;;
3293;SDS011;1659;51.470;6.770;2023-04-06T05:10:59;22.77;;;13.00;;
3293;SDS011;1659;51.470;6.770;2023-04-06T05:13:26;38.33;;;14.47;;
3293;SDS011;1659;51.470;6.770;2023-04-06T05:15:53;20.33;;;13.50;;
3293;SDS011;1659;51.470;6.770;2023-04-06T05:18:19;28.40;;;13.60;;
3293;SDS011;1659;51.470;6.770;2023-04-06T05:20:46;28.50;;;13.30;;
3293;SDS011;1659;51.470;6.770;2023-04-06T05:23:14;27.10;;;12.70;;
3293;SDS011;1659;51.470;6.770;2023-04-06T05:25:41;25.03;;;13.43;;
3293;SDS011;1659;51.470;6.770;2023-04-06T05:28:08;21.97;;;12.50;;
3293;SDS011;1659;51.470;6.770;2023-04-06T05:30:34;22.17;;;11.90;;
3293;SDS011;1659;51.470;6.770;2023-04-06T05:33:01;26.57;;;12.50;;
3293;SDS011;1659;51.470;6.770;2023-04-06T05:35:28;20.17;;;13.17;;
3293;SDS011;1659;51.470;6.770;2023-04-06T05:37:55;20.13;;;11.20;;
3293;SDS011;1659;51.470;6.770;2023-04-06T05:40:23;22.80;;;11.80;;
3293;SDS011;1659;51.470;6.770;2023-04-06T05:42:49;26.77;;;13.27;;
3293;SDS011;1659;51.470;6.770;2023-04-06T05:45:16;20.33;;;12.10;;
3293;SDS011;1659;51.470;6.770;2023-04-06T05:47:43;26.17;;;13.73;;
3293;SDS011;1659;51.470;6.770;2023-04-06T05:50:10;19.03;;;12.10;;
3293;SDS011;1659;51.470;6.770;2023-04-06T05:52:38;20.50;;;11.90;;
3293;SDS011;1659;51.470;6.770;2023-04-06T05:55:08;24.17;;;13.57;;
3293;SDS011;1659;51.470;6.770;2023-04-06T05:57:36;23.67;;;13.43;;
3293;SDS011;1659;51.470;6.770;2023-04-06T06:00:03;22.93;;;13.10;;
3293;SDS011;1659;51.470;6.770;2023-04-06T06:02:31;25.53;;;12.00;;
3293;SDS011;1659;51.470;6.770;2023-04-06T06:04:58;29.13;;;12.90;;
3293;SDS011;1659;51.470;6.770;2023-04-06T06:07:25;22.27;;;12.33;;
3293;SDS011;1659;51.470;6.770;2023-04-06T06:09:51;26.40;;;12.73;;
3293;SDS011;1659;51.470;6.770;2023-04-06T06:12:18;19.67;;;11.70;;
3293;SDS011;1659;51.470;6.770;2023-04-06T06:14:46;21.10;;;12.20;;
3293;SDS011;1659;51.470;6.770;2023-04-06T06:17:13;31.10;;;12.40;;
3293;SDS011;1659;51.470;6.770;2023-04-06T06:19:40;24.77;;;12.63;;
3293;SDS011;1659;51.470;6.770;2023-04-06T06:22:06;21.77;;;12.00;;
3293;SDS011;1659;51.470;6.770;2023-04-06T06:24:33;24.33;;;12.07;;
3293;SDS011;1659;51.470;6.770;2023-04-06T06:27:00;27.43;;;12.33;;
3293;SDS011;1659;51.470;6.770;2023-04-06T06:29:26;19.47;;;12.73;;
3293;SDS011;1659;51.470;6.770;2023-04-06T06:31:54;26.27;;;12.13;;
3293;SDS011;1659;51.470;6.770;2023-04-06T06:34:21;25.03;;;12.40;;
3293;SDS011;1659;51.470;6.770;2023-04-06T06:36:48;25.10;;;12.80;;
3293;SDS011;1659;51.470;6.770;2023-04-06T06:39:14;19.37;;;12.60;;
3293;SDS011;1659;51.470;6.770;2023-04-06T06:41:41;17.13;;;11.00;;
3293;SDS011;1659;51.470;6.770;2023-04-06T06:44:08;21.43;;;12.73;;
3293;SDS011;1659;51.470;6.770;2023-04-06T06:46:34;22.90;;;13.30;;
3293;SDS011;1659;51.470;6.770;2023-04-06T06:49:02;17.80;;;12.03;;
3293;SDS011;1659;51.470;6.770;2023-04-06T06:51:29;23.03;;;12.43;;
3293;SDS011;1659;51.470;6.770;2023-04-06T06:53:55;20.27;;;12.77;;
3293;SDS011;1659;51.470;6.770;2023-04-06T06:56:22;20.80;;;12.03;;
3293;SDS011;1659;51.470;6.770;2023-04-06T06:58:49;18.27;;;11.73;;
3293;SDS011;1659;51.470;6.770;2023-04-06T07:01:15;18.77;;;11.67;;
3293;SDS011;1659;51.470;6.770;2023-04-06T07:03:42;19.33;;;13.17;;
3293;SDS011;1659;51.470;6.770;2023-04-06T07:06:10;22.67;;;11.10;;
3293;SDS011;1659;51.470;6.770;2023-04-06T07:08:36;21.63;;;11.73;;
3293;SDS011;1659;51.470;6.770;2023-04-06T07:11:03;14.03;;;10.93;;
3293;SDS011;1659;51.470;6.770;2023-04-06T07:13:30;19.07;;;12.07;;
3293;SDS011;1659;51.470;6.770;2023-04-06T07:15:57;21.30;;;12.87;;
3293;SDS011;1659;51.470;6.770;2023-04-06T07:18:23;21.30;;;11.33;;
3293;SDS011;1659;51.470;6.770;2023-04-06T07:20:50;19.40;;;13.07;;
3293;SDS011;1659;51.470;6.770;2023-04-06T07:23:18;16.07;;;10.90;;
3293;SDS011;1659;51.470;6.770;2023-04-06T07:25:45;20.47;;;12.73;;
3293;SDS011;1659;51.470;6.770;2023-04-06T07:28:11;16.03;;;11.40;;
3293;SDS011;1659;51.470;6.770;2023-04-06T07:30:38;17.90;;;13.10;;
3293;SDS011;1659;51.470;6.770;2023-04-06T07:33:05;16.33;;;11.50;;
3293;SDS011;1659;51.470;6.770;2023-04-06T07:35:32;17.80;;;12.03;;
3293;SDS011;1659;51.470;6.770;2023-04-06T07:38:01;21.00;;;12.40;;
3293;SDS011;1659;51.470;6.770;2023-04-06T07:40:29;20.30;;;12.03;;
3293;SDS011;1659;51.470;6.770;2023-04-06T07:42:57;22.47;;;13.40;;
3293;SDS011;1659;51.470;6.770;2023-04-06T07:45:23;20.97;;;12.27;;
3293;SDS011;1659;51.470;6.770;2023-04-06T07:47:50;20.00;;;13.43;;
3293;SDS011;1659;51.470;6.770;2023-04-06T07:50:17;18.10;;;12.10;;
3293;SDS011;1659;51.470;6.770;2023-04-06T07:52:43;21.23;;;13.37;;
3293;SDS011;1659;51.470;6.770;2023-04-06T07:55:10;19.97;;;12.80;;
3293;SDS011;1659;51.470;6.770;2023-04-06T07:57:38;21.60;;;13.13;;
3293;SDS011;1659;51.470;6.770;2023-04-06T08:00:05;19.37;;;12.57;;
3293;SDS011;1659;51.470;6.770;2023-04-06T08:02:34;20.23;;;13.03;;
3293;SDS011;1659;51.470;6.770;2023-04-06T08:05:01;22.57;;;13.80;;
3293;SDS011;1659;51.470;6.770;2023-04-06T08:07:27;27.40;;;13.77;;
3293;SDS011;1659;51.470;6.770;2023-04-06T08:09:54;24.87;;;14.33;;
3293;SDS011;1659;51.470;6.770;2023-04-06T08:12:21;17.43;;;12.63;;
3293;SDS011;1659;51.470;6.770;2023-04-06T08:14:49;21.77;;;12.90;;
3293;SDS011;1659;51.470;6.770;2023-04-06T08:17:15;17.53;;;12.10;;
3293;SDS011;1659;51.470;6.770;2023-04-06T08:19:42;20.10;;;13.13;;
3293;SDS011;1659;51.470;6.770;2023-04-06T08:22:10;24.13;;;13.80;;
3293;SDS011;1659;51.470;6.770;2023-04-06T08:24:36;20.90;;;13.10;;
3293;SDS011;1659;51.470;6.770;2023-04-06T08:27:03;18.20;;;13.30;;
3293;SDS011;1659;51.470;6.770;2023-04-06T08:29:30;18.83;;;12.70;;
3293;SDS011;1659;51.470;6.770;2023-04-06T08:31:58;20.60;;;13.67;;
3293;SDS011;1659;51.470;6.770;2023-04-06T08:34:25;18.97;;;13.00;;
3293;SDS011;1659;51.470;6.770;2023-04-06T08:36:51;23.83;;;13.00;;
3293;SDS011;1659;51.470;6.770;2023-04-06T08:39:18;19.80;;;12.80;;
3293;SDS011;1659;51.470;6.770;2023-04-06T08:41:50;31.20;;;15.00;;
3293;SDS011;1659;51.470;6.770;2023-04-06T08:44:17;19.17;;;12.70;;
3293;SDS011;1659;51.470;6.770;2023-04-06T08:46:44;20.60;;;14.70;;
3293;SDS011;1659;51.470;6.770;2023-04-06T08:49:12;19.27;;;13.77;;
3293;SDS011;1659;51.470;6.770;2023-04-06T08:51:42;25.33;;;14.03;;
3293;SDS011;1659;51.470;6.770;2023-04-06T08:54:09;20.47;;;13.93;;
3293;SDS011;1659;51.470;6.770;2023-04-06T08:56:37;23.70;;;15.30;;
3293;SDS011;1659;51.470;6.770;2023-04-06T08:59:04;21.87;;;14.63;;
3293;SDS011;1659;51.470;6.770;2023-04-06T09:01:33;22.80;;;15.73;;
3293;SDS011;1659;51.470;6.770;2023-04-06T09:04:05;21.80;;;13.77;;
3293;SDS011;1659;51.470;6.770;2023-04-06T09:06:37;20.87;;;13.47;;
3293;SDS011;1659;51.470;6.770;2023-04-06T09:09:05;49.27;;;16.37;;
3293;SDS011;1659;51.470;6.770;2023-04-06T09:11:41;18.20;;;13.90;;
3293;SDS011;1659;51.470;6.770;2023-04-06T09:14:12;24.03;;;14.37;;
3293;SDS011;1659;51.470;6.770;2023-04-06T09:16:39;23.97;;;14.07;;
3293;SDS011;1659;51.470;6.770;2023-04-06T09:19:06;22.90;;;14.73;;
3293;SDS011;1659;51.470;6.770;2023-04-06T09:21:33;23.27;;;15.90;;
3293;SDS011;1659;51.470;6.770;2023-04-06T09:24:02;21.10;;;14.70;;
3293;SDS011;1659;51.470;6.770;2023-04-06T09:26:29;24.10;;;15.67;;
3293;SDS011;1659;51.470;6.770;2023-04-06T09:28:58;21.00;;;14.50;;
3293;SDS011;1659;51.470;6.770;2023-04-06T09:31:26;22.40;;;15.30;;
3293;SDS011;1659;51.470;6.770;2023-04-06T09:33:54;38.30;;;15.43;;
3293;SDS011;1659;51.470;6.770;2023-04-06T09:36:29;31.40;;;15.47;;
3293;SDS011;1659;51.470;6.770;2023-04-06T09:38:56;26.90;;;16.13;;
3293;SDS011;1659;51.470;6.770;2023-04-06T09:41:26;28.27;;;16.40;;
3293;SDS011;1659;51.470;6.770;2023-04-06T09:44:01;24.90;;;15.70;;
3293;SDS011;1659;51.470;6.770;2023-04-06T09:46:30;31.77;;;15.83;;
3293;SDS011;1659;51.470;6.770;2023-04-06T09:49:00;29.53;;;17.13;;
3293;SDS011;1659;51.470;6.770;2023-04-06T09:51:28;32.10;;;15.20;;
3293;SDS011;1659;51.470;6.770;2023-04-06T09:53:57;27.43;;;15.23;;
3293;SDS011;1659;51.470;6.770;2023-04-06T09:56:30;28.50;;;15.63;;
3293;SDS011;1659;51.470;6.770;2023-04-06T09:59:01;24.93;;;15.30;;
3293;SDS011;1659;51.470;6.770;2023-04-06T10:01:30;23.03;;;14.40;;
3293;SDS011;1659;51.470;6.770;2023-04-06T10:04:02;24.33;;;15.63;;
3293;SDS011;1659;51.470;6.770;2023-04-06T10:06:37;24.80;;;15.30;;
3293;SDS011;1659;51.470;6.770;2023-04-06T10:09:04;24.30;;;15.50;;
3293;SDS011;1659;51.470;6.770;2023-04-06T10:11:35;23.23;;;14.50;;
3293;SDS011;1659;51.470;6.770;2023-04-06T10:14:02;22.67;;;14.20;;
3293;SDS011;1659;51.470;6.770;2023-04-06T10:16:29;27.30;;;15.80;;
3293;SDS011;1659;51.470;6.770;2023-04-06T10:18:58;29.50;;;16.80;;
3293;SDS011;1659;51.470;6.770;2023-04-06T10:21:31;31.00;;;16.60;;
3293;SDS011;1659;51.470;6.770;2023-04-06T10:24:00;28.57;;;16.00;;
3293;SDS011;1659;51.470;6.770;2023-04-06T10:26:28;30.23;;;16.50;;
3293;SDS011;1659;51.470;6.770;2023-04-06T10:29:01;31.93;;;16.77;;
3293;SDS011;1659;51.470;6.770;2023-04-06T10:31:29;25.90;;;15.63;;
3293;SDS011;1659;51.470;6.770;2023-04-06T10:33:56;33.60;;;16.87;;
3293;SDS011;1659;51.470;6.770;2023-04-06T10:36:24;33.37;;;19.17;;
3293;SDS011;1659;51.470;6.770;2023-04-06T10:38:56;28.40;;;19.03;;
3293;SDS011;1659;51.470;6.770;2023-04-06T10:41:24;37.80;;;19.50;;
3293;SDS011;1659;51.470;6.770;2023-04-06T10:44:00;29.40;;;16.77;;
3293;SDS011;1659;51.470;6.770;2023-04-06T10:46:28;32.57;;;17.03;;
3293;SDS011;1659;51.470;6.770;2023-04-06T10:48:55;30.40;;;17.60;;
3293;SDS011;1659;51.470;6.770;2023-04-06T10:51:24;38.63;;;17.20;;
3293;SDS011;1659;51.470;6.770;2023-04-06T10:53:53;30.60;;;16.73;;
3293;SDS011;1659;51.470;6.770;2023-04-06T10:56:21;26.73;;;15.63;;
3293;SDS011;1659;51.470;6.770;2023-04-06T10:58:51;26.57;;;16.40;;
3293;SDS011;1659;51.470;6.770;2023-04-06T11:01:23;29.17;;;16.00;;
3293;SDS011;1659;51.470;6.770;2023-04-06T11:03:53;31.90;;;17.50;;
3293;SDS011;1659;51.470;6.770;2023-04-06T11:06:21;29.83;;;15.33;;
3293;SDS011;1659;51.470;6.770;2023-04-06T11:08:48;32.03;;;17.43;;
3293;SDS011;1659;51.470;6.770;2023-04-06T11:11:16;40.80;;;16.83;;
3293;SDS011;1659;51.470;6.770;2023-04-06T11:13:45;33.27;;;19.27;;
3293;SDS011;1659;51.470;6.770;2023-04-06T11:16:16;35.13;;;18.60;;
3293;SDS011;1659;51.470;6.770;2023-04-06T11:18:48;34.30;;;19.40;;
3293;SDS011;1659;51.470;6.770;2023-04-06T11:21:16;32.80;;;17.57;;
3293;SDS011;1659;51.470;6.770;2023-04-06T11:23:43;32.50;;;17.70;;
3293;SDS011;1659;51.470;6.770;2023-04-06T11:26:10;37.13;;;18.47;;
3293;SDS011;1659;51.470;6.770;2023-04-06T11:28:37;30.87;;;18.77;;
3293;SDS011;1659;51.470;6.770;2023-04-06T11:31:05;29.00;;;17.30;;
3293;SDS011;1659;51.470;6.770;2023-04-06T11:33:34;24.30;;;15.70;;
3293;SDS011;1659;51.470;6.770;2023-04-06T11:36:03;28.93;;;17.90;;
3293;SDS011;1659;51.470;6.770;2023-04-06T11:38:31;28.27;;;17.00;;
3293;SDS011;1659;51.470;6.770;2023-04-06T11:40:58;29.10;;;17.50;;
3293;SDS011;1659;51.470;6.770;2023-04-06T11:43:28;32.33;;;16.80;;
3293;SDS011;1659;51.470;6.770;2023-04-06T11:46:02;25.97;;;16.00;;
3293;SDS011;1659;51.470;6.770;2023-04-06T11:48:29;30.87;;;17.17;;
3293;SDS011;1659;51.470;6.770;2023-04-06T11:50:57;32.33;;;19.00;;
3293;SDS011;1659;51.470;6.770;2023-04-06T11:53:27;28.10;;;17.60;;
3293;SDS011;1659;51.470;6.770;2023-04-06T11:55:54;33.20;;;17.60;;
3293;SDS011;1659;51.470;6.770;2023-04-06T11:58:21;30.47;;;17.40;;
3293;SDS011;1659;51.470;6.770;2023-04-06T12:00:48;29.83;;;17.40;;
3293;SDS011;1659;51.470;6.770;2023-04-06T12:03:15;30.07;;;17.40;;
3293;SDS011;1659;51.470;6.770;2023-04-06T12:05:41;33.50;;;19.90;;
3293;SDS011;1659;51.470;6.770;2023-04-06T12:08:10;36.07;;;19.30;;
3293;SDS011;1659;51.470;6.770;2023-04-06T12:10:38;31.77;;;17.43;;
3293;SDS011;1659;51.470;6.770;2023-04-06T12:13:04;26.43;;;14.87;;
3293;SDS011;1659;51.470;6.770;2023-04-06T12:15:31;28.00;;;17.00;;
3293;SDS011;1659;51.470;6.770;2023-04-06T12:17:58;29.60;;;16.63;;
3293;SDS011;1659;51.470;6.770;2023-04-06T12:20:27;27.63;;;16.23;;
3293;SDS011;1659;51.470;6.770;2023-04-06T12:22:54;29.50;;;17.47;;
3293;SDS011;1659;51.470;6.770;2023-04-06T12:25:20;31.13;;;16.03;;
3293;SDS011;1659;51.470;6.770;2023-04-06T12:27:48;31.77;;;16.50;;
3293;SDS011;1659;51.470;6.770;2023-04-06T12:30:15;32.40;;;16.30;;
3293;SDS011;1659;51.470;6.770;2023-04-06T12:32:42;35.73;;;16.80;;
3293;SDS011;1659;51.470;6.770;2023-04-06T12:35:09;34.70;;;17.70;;
3293;SDS011;1659;51.470;6.770;2023-04-06T12:37:36;32.07;;;16.60;;
3293;SDS011;1659;51.470;6.770;2023-04-06T12:40:04;31.50;;;17.90;;
3293;SDS011;1659;51.470;6.770;2023-04-06T12:42:31;40.80;;;18.10;;
3293;SDS011;1659;51.470;6.770;2023-04-06T12:44:59;25.33;;;16.23;;
3293;SDS011;1659;51.470;6.770;2023-04-06T12:47:26;25.30;;;16.53;;
3293;SDS011;1659;51.470;6.770;2023-04-06T12:49:52;35.33;;;19.83;;
3293;SDS011;1659;51.470;6.770;2023-04-06T12:52:20;28.97;;;12.47;;
3293;SDS011;1659;51.470;6.770;2023-04-06T12:54:47;20.33;;;12.33;;
3293;SDS011;1659;51.470;6.770;2023-04-06T12:57:13;25.47;;;15.20;;
3293;SDS011;1659;51.470;6.770;2023-04-06T12:59:42;23.87;;;15.37;;
3293;SDS011;1659;51.470;6.770;2023-04-06T13:02:10;23.80;;;15.40;;
3293;SDS011;1659;51.470;6.770;2023-04-06T13:04:37;24.67;;;14.13;;
3293;SDS011;1659;51.470;6.770;2023-04-06T13:07:04;20.20;;;13.33;;
3293;SDS011;1659;51.470;6.770;2023-04-06T13:09:31;21.53;;;12.47;;
3293;SDS011;1659;51.470;6.770;2023-04-06T13:11:58;18.20;;;11.53;;
3293;SDS011;1659;51.470;6.770;2023-04-06T13:14:24;23.97;;;11.60;;
3293;SDS011;1659;51.470;6.770;2023-04-06T13:16:51;17.63;;;11.27;;
3293;SDS011;1659;51.470;6.770;2023-04-06T13:19:19;15.40;;;9.70;;
3293;SDS011;1659;51.470;6.770;2023-04-06T13:21:46;17.07;;;11.33;;
3293;SDS011;1659;51.470;6.770;2023-04-06T13:24:13;18.10;;;11.23;;
3293;SDS011;1659;51.470;6.770;2023-04-06T13:26:40;19.10;;;9.87;;
3293;SDS011;1659;51.470;6.770;2023-04-06T13:29:07;17.13;;;10.53;;
3293;SDS011;1659;51.470;6.770;2023-04-06T13:31:33;17.43;;;9.47;;
3293;SDS011;1659;51.470;6.770;2023-04-06T13:34:00;15.13;;;9.57;;
3293;SDS011;1659;51.470;6.770;2023-04-06T13:36:28;18.30;;;10.63;;
3293;SDS011;1659;51.470;6.770;2023-04-06T13:38:55;15.47;;;8.80;;
3293;SDS011;1659;51.470;6.770;2023-04-06T13:41:22;14.73;;;9.90;;
3293;SDS011;1659;51.470;6.770;2023-04-06T13:43:50;17.80;;;10.10;;
3293;SDS011;1659;51.470;6.770;2023-04-06T13:46:17;20.13;;;10.80;;
3293;SDS011;1659;51.470;6.770;2023-04-06T13:48:44;14.93;;;9.70;;
3293;SDS011;1659;51.470;6.770;2023-04-06T13:51:12;18.17;;;10.57;;
3293;SDS011;1659;51.470;6.770;2023-04-06T13:53:41;17.43;;;9.97;;
3293;SDS011;1659;51.470;6.770;2023-04-06T13:56:08;20.63;;;10.23;;
3293;SDS011;1659;51.470;6.770;2023-04-06T13:58:34;15.20;;;9.57;;
3293;SDS011;1659;51.470;6.770;2023-04-06T14:01:02;16.90;;;9.90;;
3293;SDS011;1659;51.470;6.770;2023-04-06T14:03:29;20.00;;;11.30;;
3293;SDS011;1659;51.470;6.770;2023-04-06T14:05:56;18.33;;;12.37;;
3293;SDS011;1659;51.470;6.770;2023-04-06T14:08:23;24.50;;;11.63;;
3293;SDS011;1659;51.470;6.770;2023-04-06T14:10:51;17.97;;;11.33;;
3293;SDS011;1659;51.470;6.770;2023-04-06T14:13:19;18.07;;;11.57;;
3293;SDS011;1659;51.470;6.770;2023-04-06T14:15:45;20.70;;;11.00;;
3293;SDS011;1659;51.470;6.770;2023-04-06T14:18:12;16.00;;;10.73;;
3293;SDS011;1659;51.470;6.770;2023-04-06T14:20:38;20.70;;;12.27;;
3293;SDS011;1659;51.470;6.770;2023-04-06T14:23:05;16.27;;;10.70;;
3293;SDS011;1659;51.470;6.770;2023-04-06T14:25:31;18.70;;;11.60;;
3293;SDS011;1659;51.470;6.770;2023-04-06T14:28:00;19.20;;;10.90;;
3293;SDS011;1659;51.470;6.770;2023-04-06T14:30:27;16.80;;;11.10;;
3293;SDS011;1659;51.470;6.770;2023-04-06T14:32:58;15.80;;;10.20;;
3293;SDS011;1659;51.470;6.770;2023-04-06T14:35:25;19.43;;;12.00;;
3293;SDS011;1659;51.470;6.770;2023-04-06T14:37:53;22.23;;;11.63;;
3293;SDS011;1659;51.470;6.770;2023-04-06T14:40:19;17.40;;;11.50;;
3293;SDS011;1659;51.470;6.770;2023-04-06T14:42:48;26.10;;;11.77;;
3293;SDS011;1659;51.470;6.770;2023-04-06T14:45:18;18.40;;;11.30;;
3293;SDS011;1659;51.470;6.770;2023-04-06T14:47:48;20.27;;;12.47;;
3293;SDS011;1659;51.470;6.770;2023-04-06T14:50:15;17.77;;;11.57;;